Terminal Aerodrome Forecast
Issued by NWS Sioux Falls, SD

Home | Current Version | Previous Version | Graphics & Text | Print | Product List | Glossary On
Versions: 1 2 3 4 5 6 7 8 9 10 11 12 13
000
FTUS43 KFSD 312302 AAA
TAFHON
TAF AMD
KHON 312302Z 3123/0118 01008KT 5SM FU SCT110 BKN200
     FM010100 VRB05KT P6SM SCT100 BKN150
     FM011500 11009KT P6SM SCT150=

USA.gov is the U.S. government's official web portal to all federal, state and local government web resources and services.